createdAt,value
2022-07-26T00:02:00.706Z,5.45
2022-07-26T00:04:29.146Z,7.45
2022-07-26T00:06:57.364Z,5.05
2022-07-26T00:09:25.228Z,5.18
2022-07-26T00:11:53.125Z,5.72
2022-07-26T00:14:20.921Z,7.32
2022-07-26T00:16:50.198Z,5.13
2022-07-26T00:19:18.224Z,7.32
2022-07-26T00:21:46.003Z,6.03
2022-07-26T00:24:13.863Z,6.22
2022-07-26T00:26:41.724Z,3.53
2022-07-26T00:29:09.770Z,8.77
2022-07-26T00:31:37.774Z,4.80
2022-07-26T00:34:06.981Z,6.35
2022-07-26T00:36:34.743Z,5.22
2022-07-26T00:39:04.012Z,4.13
2022-07-26T00:41:31.792Z,6.45
2022-07-26T00:44:01.767Z,7.22
2022-07-26T00:46:30.327Z,4.13
2022-07-26T00:48:58.539Z,5.47
2022-07-26T00:51:27.767Z,5.07
2022-07-26T00:53:55.836Z,5.88
2022-07-26T00:56:23.910Z,6.60
2022-07-26T00:58:51.705Z,3.92
2022-07-26T01:01:19.675Z,5.47
2022-07-26T01:03:51.251Z,5.60
2022-07-26T01:06:20.921Z,5.43
2022-07-26T01:08:53.145Z,4.63
2022-07-26T01:11:20.963Z,4.30
2022-07-26T01:13:50.152Z,3.65
2022-07-26T01:16:18.715Z,5.43
2022-07-26T01:18:46.555Z,5.75
2022-07-26T01:21:14.538Z,6.13
2022-07-26T01:23:44.694Z,5.22
2022-07-26T01:26:12.704Z,5.50
2022-07-26T01:28:42.720Z,7.93
2022-07-26T01:31:10.673Z,7.60
2022-07-26T01:33:38.585Z,7.88
2022-07-26T01:36:07.104Z,7.57
2022-07-26T01:38:34.889Z,6.22
2022-07-26T01:41:04.048Z,5.57
2022-07-26T01:43:31.877Z,7.25
2022-07-26T01:45:59.797Z,3.67
2022-07-26T01:48:27.699Z,6.70
2022-07-26T01:50:55.584Z,6.50
2022-07-26T01:53:23.485Z,6.63
2022-07-26T01:55:51.316Z,5.95
2022-07-26T01:58:20.641Z,6.35
2022-07-26T02:00:49.075Z,7.45
2022-07-26T02:03:16.962Z,7.60
2022-07-26T02:05:44.886Z,5.70
2022-07-26T02:08:12.819Z,5.18
2022-07-26T02:10:58.276Z,6.90
2022-07-26T02:13:28.038Z,5.93
2022-07-26T02:15:55.902Z,10.23
2022-07-26T02:18:23.704Z,9.00
2022-07-26T02:20:52.121Z,4.80
2022-07-26T02:23:20.297Z,4.70
2022-07-26T02:25:48.166Z,6.40
2022-07-26T02:28:16.662Z,3.20
2022-07-26T02:30:46.996Z,3.88
2022-07-26T02:33:15.356Z,7.03
2022-07-26T02:35:44.152Z,5.40
2022-07-26T02:38:14.981Z,5.18
2022-07-26T02:40:44.051Z,5.43
2022-07-26T02:43:12.409Z,8.27
2022-07-26T02:45:40.304Z,5.00
2022-07-26T02:48:09.624Z,5.82
2022-07-26T02:50:37.452Z,3.72
2022-07-26T02:53:05.400Z,4.53
2022-07-26T02:55:33.184Z,7.38
2022-07-26T02:58:00.983Z,5.57
2022-07-26T03:00:29.034Z,6.28
2022-07-26T03:02:57.647Z,5.20
2022-07-26T03:05:27.006Z,6.50
2022-07-26T03:07:54.738Z,8.38
2022-07-26T03:10:22.531Z,6.22
2022-07-26T03:12:50.297Z,4.63
2022-07-26T03:15:18.204Z,8.02
2022-07-26T03:17:46.003Z,7.80
2022-07-26T03:20:14.336Z,6.75
2022-07-26T03:22:43.716Z,5.07
2022-07-26T03:25:11.495Z,5.47
2022-07-26T03:27:39.319Z,6.90
2022-07-26T03:30:08.589Z,5.00
2022-07-26T03:32:38.521Z,7.78
2022-07-26T03:35:06.920Z,6.95
2022-07-26T03:37:46.156Z,6.35
2022-07-26T03:40:16.425Z,6.97
2022-07-26T03:42:44.474Z,4.30
2022-07-26T03:45:13.918Z,7.28
2022-07-26T03:47:41.806Z,5.10
2022-07-26T03:50:11.018Z,7.28
2022-07-26T03:52:38.958Z,4.32
2022-07-26T03:55:21.850Z,3.65
2022-07-26T03:57:50.976Z,5.88
2022-07-26T04:00:19.328Z,3.67
2022-07-26T04:02:47.197Z,3.95
2022-07-26T04:05:15.067Z,8.30
2022-07-26T04:07:43.709Z,7.25
2022-07-26T04:10:21.357Z,3.38
2022-07-26T04:12:51.270Z,5.85
2022-07-26T04:15:20.978Z,3.42
2022-07-26T04:17:49.228Z,6.82
2022-07-26T04:20:17.327Z,3.17
2022-07-26T04:22:45.196Z,3.88
2022-07-26T04:25:13.299Z,5.00
2022-07-26T04:27:41.069Z,6.50
2022-07-26T04:30:15.164Z,5.65
2022-07-26T04:32:43.928Z,5.03
2022-07-26T04:35:13.641Z,5.18
2022-07-26T04:37:42.637Z,5.72
2022-07-26T04:40:12.998Z,3.30
2022-07-26T04:42:40.991Z,5.03
2022-07-26T04:45:12.731Z,5.22
2022-07-26T04:47:42.490Z,4.20
2022-07-26T04:50:11.491Z,4.25
2022-07-26T04:52:39.301Z,2.40
2022-07-26T04:55:08.243Z,4.45
2022-07-26T04:57:36.438Z,3.42
2022-07-26T05:00:23.485Z,4.22
2022-07-26T05:02:55.047Z,5.97
2022-07-26T05:05:24.030Z,2.42
2022-07-26T05:07:53.553Z,3.65
2022-07-26T05:10:22.588Z,5.05
2022-07-26T05:12:50.416Z,2.35
2022-07-26T05:15:18.174Z,3.35
2022-07-26T05:17:46.073Z,3.58
2022-07-26T05:20:16.990Z,4.53
2022-07-26T05:22:45.945Z,3.47
2022-07-26T05:25:13.976Z,4.88
2022-07-26T05:27:41.858Z,6.97
2022-07-26T05:30:11.300Z,5.93
2022-07-26T05:32:39.248Z,7.18
2022-07-26T05:35:08.060Z,5.22
2022-07-26T05:37:37.292Z,6.18
2022-07-26T05:40:06.505Z,3.30
2022-07-26T05:42:34.453Z,3.65
2022-07-26T05:45:02.193Z,3.90
2022-07-26T05:47:30.396Z,4.75
2022-07-26T05:49:58.152Z,2.60
2022-07-26T05:52:25.936Z,4.28
2022-07-26T05:54:55.101Z,2.88
2022-07-26T05:57:23.057Z,4.22
2022-07-26T05:59:51.060Z,5.78
2022-07-26T06:02:18.909Z,4.97
2022-07-26T06:04:47.667Z,4.78
2022-07-26T06:07:15.889Z,4.15
2022-07-26T06:09:43.810Z,4.00
2022-07-26T06:12:13.020Z,3.10
2022-07-26T06:14:40.836Z,4.00
2022-07-26T06:17:09.005Z,5.70
2022-07-26T06:19:36.881Z,3.35
2022-07-26T06:22:04.901Z,3.28
2022-07-26T06:24:32.722Z,3.25
2022-07-26T06:27:05.037Z,2.60
2022-07-26T06:29:34.908Z,3.55
2022-07-26T06:32:02.785Z,2.25
2022-07-26T06:34:30.665Z,3.30
2022-07-26T06:36:58.553Z,2.90
2022-07-26T06:39:26.327Z,3.17
2022-07-26T06:41:54.079Z,2.25
2022-07-26T06:44:23.860Z,5.13
2022-07-26T06:46:52.951Z,3.33
2022-07-26T06:49:22.720Z,4.07
2022-07-26T06:51:51.151Z,4.43
2022-07-26T06:54:18.871Z,4.43
2022-07-26T06:56:46.667Z,4.40
2022-07-26T06:59:14.392Z,4.32
2022-07-26T07:01:55.524Z,3.63
2022-07-26T07:04:30.719Z,4.32
2022-07-26T07:07:05.360Z,3.03
2022-07-26T07:09:34.488Z,6.25
2022-07-26T07:12:09.887Z,4.88
2022-07-26T07:14:38.619Z,7.97
2022-07-26T07:17:10.756Z,5.28
2022-07-26T07:19:43.231Z,5.75
2022-07-26T07:22:12.308Z,6.20
2022-07-26T07:24:41.013Z,4.82
2022-07-26T07:27:09.252Z,5.60
2022-07-26T07:29:38.552Z,4.13
2022-07-26T07:32:09.041Z,3.83
2022-07-26T07:34:47.678Z,2.85
2022-07-26T07:37:15.857Z,3.38
2022-07-26T07:39:43.771Z,4.72
2022-07-26T07:42:11.563Z,3.45
2022-07-26T07:44:39.373Z,3.25
2022-07-26T07:47:08.932Z,3.88
2022-07-26T07:49:37.150Z,3.22
2022-07-26T07:52:06.770Z,4.65
2022-07-26T07:54:34.534Z,4.95
2022-07-26T07:57:03.210Z,4.10
2022-07-26T07:59:31.797Z,3.78
2022-07-26T08:01:59.944Z,5.28
2022-07-26T08:04:27.819Z,3.78
2022-07-26T08:06:56.132Z,3.90
2022-07-26T08:09:28.725Z,4.30
2022-07-26T08:11:56.745Z,4.03
2022-07-26T08:14:24.566Z,3.08
2022-07-26T08:16:52.652Z,3.95
2022-07-26T08:19:20.686Z,3.75
2022-07-26T08:21:50.384Z,4.93
2022-07-26T08:24:18.154Z,7.88
2022-07-26T08:26:47.337Z,5.60
2022-07-26T08:29:15.359Z,8.38
2022-07-26T08:31:43.463Z,4.93
2022-07-26T08:34:11.348Z,5.75
2022-07-26T08:36:49.603Z,5.70
2022-07-26T08:39:26.915Z,7.20
2022-07-26T08:41:56.127Z,4.68
2022-07-26T08:44:23.961Z,4.35
2022-07-26T08:46:51.852Z,5.20
2022-07-26T08:49:19.756Z,5.32
2022-07-26T08:51:47.628Z,4.55
2022-07-26T08:54:16.686Z,4.32
2022-07-26T08:56:51.858Z,6.70
2022-07-26T08:59:22.864Z,4.65
2022-07-26T09:01:54.166Z,5.53
2022-07-26T09:04:31.578Z,6.57
2022-07-26T09:07:03.719Z,5.00
2022-07-26T09:09:33.763Z,5.68
2022-07-26T09:12:14.823Z,5.63
2022-07-26T09:14:46.669Z,4.35
2022-07-26T09:17:15.781Z,7.15
2022-07-26T09:19:44.204Z,5.40
2022-07-26T09:22:13.993Z,4.03
2022-07-26T09:24:43.241Z,4.05
2022-07-26T09:27:12.587Z,5.18
2022-07-26T09:29:46.602Z,6.63
2022-07-26T09:32:20.162Z,5.13
2022-07-26T09:34:52.914Z,5.82
2022-07-26T09:37:34.885Z,4.88
2022-07-26T09:40:05.993Z,4.75
2022-07-26T09:42:33.885Z,5.68
2022-07-26T09:45:03.254Z,4.63
2022-07-26T09:47:38.145Z,4.20
2022-07-26T09:50:16.963Z,3.22
2022-07-26T09:53:02.190Z,3.25
2022-07-26T09:55:40.837Z,5.05
2022-07-26T09:58:14.021Z,3.60
2022-07-26T10:00:44.117Z,5.47
2022-07-26T10:03:12.724Z,6.90
2022-07-26T10:05:40.573Z,3.03
2022-07-26T10:08:08.971Z,4.57
2022-07-26T10:10:42.133Z,3.65
2022-07-26T10:13:11.107Z,3.80
2022-07-26T10:15:41.698Z,3.50
2022-07-26T10:18:32.762Z,2.90
2022-07-26T10:21:00.489Z,3.60
2022-07-26T10:23:44.048Z,4.20
2022-07-26T10:26:14.783Z,4.13
2022-07-26T10:28:43.054Z,3.88
2022-07-26T10:31:31.234Z,4.88
2022-07-26T10:34:02.633Z,4.93
2022-07-26T10:36:36.175Z,2.90
2022-07-26T10:39:14.288Z,4.30
2022-07-26T10:41:45.916Z,3.65
2022-07-26T10:44:25.684Z,4.03
2022-07-26T10:47:01.731Z,4.57
2022-07-26T10:49:36.373Z,4.00
2022-07-26T10:52:16.226Z,3.90
2022-07-26T10:55:20.727Z,3.55
2022-07-26T10:57:50.217Z,2.85
2022-07-26T11:00:21.609Z,3.55
2022-07-26T11:02:53.663Z,4.38
2022-07-26T11:05:27.863Z,2.95
2022-07-26T11:07:59.661Z,4.70
2022-07-26T11:13:12.725Z,4.88
2022-07-26T11:15:42.685Z,5.22
2022-07-26T11:18:14.641Z,4.40
2022-07-26T11:20:46.987Z,2.88
2022-07-26T11:23:26.010Z,6.13
2022-07-26T11:26:15.439Z,7.18
2022-07-26T11:28:51.289Z,2.65
2022-07-26T11:31:20.154Z,3.80
2022-07-26T11:33:51.018Z,3.95
2022-07-26T11:36:32.051Z,4.65
2022-07-26T11:39:01.150Z,2.92
2022-07-26T11:41:34.279Z,2.92
2022-07-26T11:44:03.730Z,2.22
2022-07-26T11:46:37.577Z,3.05
2022-07-26T11:49:13.040Z,3.08
2022-07-26T11:51:49.096Z,4.35
2022-07-26T11:54:17.055Z,4.43
2022-07-26T11:56:51.690Z,3.75
2022-07-26T11:59:19.872Z,3.83
2022-07-26T12:01:49.534Z,3.80
2022-07-26T12:04:23.769Z,3.30
2022-07-26T12:06:53.632Z,4.07
2022-07-26T12:09:32.202Z,2.92
2022-07-26T12:12:00.990Z,2.42
2022-07-26T12:14:29.630Z,5.15
2022-07-26T12:16:59.418Z,2.45
2022-07-26T12:19:30.308Z,3.40
2022-07-26T12:22:12.289Z,2.28
2022-07-26T12:24:44.921Z,3.88
2022-07-26T12:27:15.907Z,3.15
2022-07-26T12:29:45.174Z,2.95
2022-07-26T12:32:16.307Z,2.97
2022-07-26T12:37:32.580Z,3.00
2022-07-26T12:40:08.782Z,3.95
2022-07-26T12:45:06.485Z,3.03
2022-07-26T12:47:34.479Z,4.82
2022-07-26T12:50:03.582Z,2.78
2022-07-26T12:52:33.732Z,4.70
2022-07-26T12:55:01.961Z,3.17
2022-07-26T12:57:29.859Z,4.05
2022-07-26T12:59:59.590Z,3.92
2022-07-26T13:02:27.553Z,3.97
2022-07-26T13:04:59.872Z,4.30
2022-07-26T13:07:28.538Z,3.50
2022-07-26T13:10:30.029Z,2.35
2022-07-26T13:12:46.094Z,3.10
2022-07-26T13:15:13.856Z,4.10
2022-07-26T13:17:41.798Z,4.05
2022-07-26T13:20:10.262Z,3.50
2022-07-26T13:22:38.022Z,4.13
2022-07-26T13:25:08.569Z,4.35
2022-07-26T13:27:39.170Z,4.20
2022-07-26T13:30:09.961Z,3.75
2022-07-26T13:32:37.682Z,3.65
2022-07-26T13:35:05.769Z,3.83
2022-07-26T13:37:33.533Z,3.13
2022-07-26T13:40:01.301Z,2.78
2022-07-26T13:42:30.516Z,4.00
2022-07-26T13:44:58.342Z,4.20
2022-07-26T13:47:26.095Z,4.63
2022-07-26T13:49:53.887Z,3.22
2022-07-26T13:52:21.651Z,5.60
2022-07-26T13:54:49.369Z,4.15
2022-07-26T13:57:17.086Z,3.15
2022-07-26T13:59:46.181Z,2.10
2022-07-26T14:02:14.112Z,3.13
2022-07-26T14:04:42.595Z,4.10
2022-07-26T14:07:10.408Z,2.50
2022-07-26T14:09:38.242Z,2.90
2022-07-26T14:12:06.681Z,2.53
2022-07-26T14:14:37.601Z,2.55
2022-07-26T14:17:06.807Z,3.47
2022-07-26T14:19:36.616Z,2.22
2022-07-26T14:22:05.190Z,3.35
2022-07-26T14:24:33.191Z,3.70
2022-07-26T14:27:02.818Z,3.65
2022-07-26T14:29:30.836Z,4.05
2022-07-26T14:31:58.782Z,3.65
2022-07-26T14:34:27.940Z,4.18
2022-07-26T14:36:55.754Z,3.08
2022-07-26T14:39:23.654Z,2.88
2022-07-26T14:41:51.596Z,1.83
2022-07-26T14:44:19.474Z,3.72
2022-07-26T14:46:47.540Z,2.40
2022-07-26T14:49:15.292Z,2.65
2022-07-26T14:51:44.703Z,1.85
2022-07-26T14:57:00.015Z,2.70
2022-07-26T14:59:27.771Z,3.53
2022-07-26T15:01:55.575Z,2.40
2022-07-26T15:04:23.382Z,2.05
2022-07-26T15:06:52.513Z,4.20
2022-07-26T15:09:20.257Z,2.28
2022-07-26T15:11:49.362Z,3.08
2022-07-26T15:14:17.150Z,3.05
2022-07-26T15:16:44.982Z,4.57
2022-07-26T15:19:12.725Z,2.25
2022-07-26T15:21:40.511Z,2.83
2022-07-26T15:24:10.480Z,3.55
2022-07-26T15:26:38.671Z,4.18
2022-07-26T15:29:06.440Z,3.83
2022-07-26T15:31:36.736Z,4.13
2022-07-26T15:34:05.590Z,2.85
2022-07-26T15:36:33.306Z,1.75
2022-07-26T15:39:15.579Z,3.28
2022-07-26T15:41:46.087Z,2.58
2022-07-26T15:44:16.222Z,4.75
2022-07-26T15:46:45.711Z,1.85
2022-07-26T15:49:14.630Z,2.47
2022-07-26T15:51:43.976Z,2.53
2022-07-26T15:54:14.611Z,2.50
2022-07-26T15:56:45.358Z,2.00
2022-07-26T15:59:13.579Z,2.58
2022-07-26T16:01:41.393Z,3.63
2022-07-26T16:04:09.540Z,2.80
2022-07-26T16:06:37.547Z,3.28
2022-07-26T16:09:16.769Z,2.60
2022-07-26T16:11:47.171Z,1.55
2022-07-26T16:14:15.131Z,2.30
2022-07-26T16:16:43.000Z,3.83
2022-07-26T16:19:11.416Z,2.33
2022-07-26T16:21:40.441Z,2.63
2022-07-26T16:24:09.829Z,2.50
2022-07-26T16:26:37.985Z,2.17
2022-07-26T16:29:07.268Z,3.35
2022-07-26T16:31:36.656Z,1.90
2022-07-26T16:34:04.497Z,2.65
2022-07-26T16:36:32.236Z,2.35
2022-07-26T16:39:00.027Z,3.90
2022-07-26T16:41:28.991Z,3.08
2022-07-26T16:43:56.911Z,2.35
2022-07-26T16:46:26.456Z,2.20
2022-07-26T16:48:54.333Z,2.90
2022-07-26T16:51:22.181Z,2.03
2022-07-26T16:53:51.647Z,2.60
2022-07-26T16:56:19.591Z,2.00
2022-07-26T16:58:47.407Z,4.95
2022-07-26T17:01:16.578Z,2.63
2022-07-26T17:03:45.874Z,2.78
2022-07-26T17:06:13.705Z,2.30
2022-07-26T17:08:41.977Z,4.57
2022-07-26T17:11:10.047Z,2.40
2022-07-26T17:13:37.861Z,1.98
2022-07-26T17:16:06.210Z,3.30
2022-07-26T17:18:34.031Z,3.92
2022-07-26T17:21:03.231Z,1.73
2022-07-26T17:23:31.032Z,2.85
2022-07-26T17:25:58.783Z,3.67
2022-07-26T17:28:26.576Z,2.55
2022-07-26T17:30:54.323Z,2.10
2022-07-26T17:33:22.274Z,3.90
2022-07-26T17:35:50.321Z,1.25
2022-07-26T17:38:19.442Z,4.13
2022-07-26T17:40:47.286Z,2.95
2022-07-26T17:43:15.049Z,3.13
2022-07-26T17:45:43.157Z,2.80
2022-07-26T17:48:11.046Z,2.95
2022-07-26T17:50:39.091Z,2.58
2022-07-26T17:53:06.982Z,3.17
2022-07-26T17:55:36.276Z,2.25
2022-07-26T17:58:04.126Z,3.63
2022-07-26T18:00:31.991Z,3.20
2022-07-26T18:02:59.729Z,3.15
2022-07-26T18:05:34.212Z,3.17
2022-07-26T18:08:05.099Z,2.38
2022-07-26T18:10:33.049Z,3.55
2022-07-26T18:13:02.247Z,3.58
2022-07-26T18:15:30.127Z,2.50
2022-07-26T18:17:57.881Z,2.75
2022-07-26T18:20:25.762Z,3.13
2022-07-26T18:22:54.614Z,3.95
2022-07-26T18:25:22.432Z,2.90
2022-07-26T18:27:50.518Z,3.75
2022-07-26T18:30:19.657Z,1.90
2022-07-26T18:32:47.376Z,3.95
2022-07-26T18:35:15.141Z,2.60
2022-07-26T18:37:42.892Z,3.10
2022-07-26T18:40:11.192Z,2.92
2022-07-26T18:42:38.946Z,4.38
2022-07-26T18:45:08.049Z,4.50
2022-07-26T18:47:37.177Z,2.00
2022-07-26T18:50:05.989Z,3.53
2022-07-26T18:52:33.758Z,3.38
2022-07-26T18:55:06.747Z,4.80
2022-07-26T18:57:35.175Z,4.03
2022-07-26T19:00:03.005Z,3.33
2022-07-26T19:02:30.833Z,4.53
2022-07-26T19:04:59.980Z,3.45
2022-07-26T19:07:28.022Z,2.00
2022-07-26T19:09:58.559Z,4.55
2022-07-26T19:12:27.674Z,3.63
2022-07-26T19:14:55.861Z,3.00
2022-07-26T19:17:23.776Z,2.50
2022-07-26T19:19:51.515Z,3.03
2022-07-26T19:22:21.236Z,2.13
2022-07-26T19:24:48.982Z,3.42
2022-07-26T19:27:16.766Z,2.92
2022-07-26T19:29:44.632Z,2.38
2022-07-26T19:32:12.402Z,3.30
2022-07-26T19:34:40.200Z,2.53
2022-07-26T19:37:08.095Z,2.85
2022-07-26T19:39:37.528Z,2.70
2022-07-26T19:42:05.899Z,3.97
2022-07-26T19:44:33.883Z,3.88
2022-07-26T19:47:01.637Z,2.65
2022-07-26T19:49:29.774Z,2.53
2022-07-26T19:51:57.791Z,3.08
2022-07-26T19:54:25.856Z,3.60
2022-07-26T19:56:55.046Z,2.58
2022-07-26T19:59:24.059Z,3.03
2022-07-26T20:01:55.240Z,2.33
2022-07-26T20:04:26.275Z,2.30
2022-07-26T20:06:55.104Z,3.85
2022-07-26T20:09:22.925Z,1.83
2022-07-26T20:11:51.718Z,2.38
2022-07-26T20:14:21.718Z,2.67
2022-07-26T20:16:55.665Z,4.75
2022-07-26T20:19:24.490Z,2.60
2022-07-26T20:21:52.310Z,3.55
2022-07-26T20:24:20.232Z,3.55
2022-07-26T20:26:48.071Z,2.83
2022-07-26T20:29:15.852Z,2.00
2022-07-26T20:31:45.022Z,4.18
2022-07-26T20:34:13.392Z,3.05
2022-07-26T20:36:41.311Z,2.85
2022-07-26T20:39:09.441Z,2.45
2022-07-26T20:41:37.409Z,2.15
2022-07-26T20:44:06.880Z,2.65
2022-07-26T20:46:39.725Z,2.80
2022-07-26T20:49:10.130Z,2.80
2022-07-26T20:51:39.056Z,2.78
2022-07-26T20:54:08.495Z,2.08
2022-07-26T20:56:36.517Z,3.72
2022-07-26T20:59:04.709Z,4.80
2022-07-26T21:01:33.620Z,2.40
2022-07-26T21:04:01.520Z,1.55
2022-07-26T21:06:33.080Z,2.70
2022-07-26T21:11:39.190Z,3.03
2022-07-26T21:14:07.565Z,1.95
2022-07-26T21:16:35.521Z,3.60
2022-07-26T21:19:04.710Z,1.02
2022-07-26T21:21:36.830Z,2.47
2022-07-26T21:26:32.275Z,2.88
2022-07-26T21:29:00.098Z,4.00
2022-07-26T21:31:28.019Z,2.90
2022-07-26T21:33:55.825Z,4.55
2022-07-26T21:36:23.745Z,2.13
2022-07-26T21:38:52.832Z,3.17
2022-07-26T21:41:20.720Z,1.75
2022-07-26T21:43:48.625Z,3.30
2022-07-26T21:46:16.594Z,4.18
2022-07-26T21:48:44.587Z,3.38
2022-07-26T21:51:12.404Z,2.08
2022-07-26T21:53:40.365Z,2.47
2022-07-26T21:56:09.508Z,3.00
2022-07-26T21:58:37.291Z,2.05
2022-07-26T22:01:06.250Z,1.98
2022-07-26T22:03:36.735Z,1.63
2022-07-26T22:06:05.501Z,3.17
2022-07-26T22:08:33.304Z,2.28
2022-07-26T22:11:01.243Z,2.03
2022-07-26T22:13:30.373Z,2.17
2022-07-26T22:15:58.116Z,2.78
2022-07-26T22:18:26.091Z,1.05
2022-07-26T22:20:54.306Z,3.08
2022-07-26T22:23:29.758Z,1.63
2022-07-26T22:25:58.085Z,1.65
2022-07-26T22:28:26.014Z,1.33
2022-07-26T22:30:55.649Z,1.20
2022-07-26T22:33:24.010Z,2.58
2022-07-26T22:35:52.292Z,2.20
2022-07-26T22:38:20.305Z,2.70
2022-07-26T22:40:48.235Z,2.35
2022-07-26T22:43:16.033Z,1.88
2022-07-26T22:45:43.934Z,1.98
2022-07-26T22:48:13.040Z,1.58
2022-07-26T22:50:40.850Z,2.65
2022-07-26T22:53:08.585Z,2.97
2022-07-26T22:55:36.438Z,3.63
2022-07-26T22:58:04.293Z,2.13
2022-07-26T23:00:32.113Z,3.05
2022-07-26T23:02:59.846Z,2.85
2022-07-26T23:05:45.516Z,1.38
2022-07-26T23:08:45.804Z,2.00
2022-07-26T23:11:03.689Z,1.67
2022-07-26T23:13:31.565Z,2.30
2022-07-26T23:16:01.194Z,2.08
2022-07-26T23:18:29.743Z,2.35
2022-07-26T23:20:58.943Z,1.45
2022-07-26T23:23:28.538Z,3.13
2022-07-26T23:25:58.995Z,3.13
2022-07-26T23:28:37.117Z,2.88
2022-07-26T23:31:06.986Z,2.60
2022-07-26T23:33:52.893Z,1.98
2022-07-26T23:36:27.394Z,2.95
2022-07-26T23:38:56.084Z,2.03
2022-07-26T23:41:24.523Z,1.90
2022-07-26T23:43:53.168Z,3.60
2022-07-26T23:46:21.195Z,2.95
2022-07-26T23:48:49.269Z,1.98
2022-07-26T23:51:17.092Z,2.08
2022-07-26T23:53:46.546Z,2.33
2022-07-26T23:56:14.321Z,1.88
2022-07-26T23:58:42.423Z,1.85
